Maimiti — PBIJ — position and weather

sailwx.info

Track history (hours):
 
Tides and Currents Weather Stations Pressure Air Temp Water Temp Dewpoint Dewpoint Depression Visibility Wind Speed Wind Dir Waves Ship Positions

Maimiti

Last reported at 2017-Jun-22 10:14 UTC. Time now 2017-Jun-23 22:26 UTC.
Position N 53°05' E 002°32'.

Length 35 m; draft 6.9 m.

Type: Tug. MMSI: 244850959.

Date/timePositionNaut miles runAvg speedWind from/ knotsBaromVisibWave heightAir tempDewpointWater temp
2017-Jun-22 10:14N 53°05' E 002°32'0 0.0
2017-Jun-22 06:44N 53°05' E 002°32'0 0.0
2017-Jun-22 06:29N 53°05' E 002°32'0 0.0
2017-Jun-22 05:59N 53°05' E 002°32'0 0.0
2017-Jun-22 05:08N 53°05' E 002°32'0 0.0
2017-Jun-22 04:52N 53°05' E 002°32'0 0.0
2017-Jun-22 01:04N 53°05' E 002°32'0 0.2
2017-Jun-22 01:00N 53°05' E 002°32'0 0.0
2017-Jun-22 00:29N 53°05' E 002°32'0 0.0
2017-Jun-21 23:02N 53°05' E 002°32'0 0.2
2017-Jun-21 23:00N 53°05' E 002°32'0 0.0
2017-Jun-21 22:06N 53°05' E 002°32'0 0.0
2017-Jun-21 21:45N 53°05' E 002°32'0 0.0
2017-Jun-21 19:24N 53°05' E 002°32'0 0.0
2017-Jun-21 19:00N 53°05' E 002°32'0 0.0
2017-Jun-21 18:22N 53°05' E 002°32'0 0.0
2017-Jun-21 18:00N 53°05' E 002°32'0 0.0
2017-Jun-21 17:29N 53°05' E 002°32'0 0.0
2017-Jun-21 17:00N 53°05' E 002°32'0 0.0
2017-Jun-21 16:19N 53°05' E 002°32'0 0.0
2017-Jun-21 16:00N 53°05' E 002°32'0 0.1
2017-Jun-21 15:21N 53°05' E 002°32'0 0.0
2017-Jun-21 14:57N 53°05' E 002°32'0 0.0
2017-Jun-21 14:30N 53°05' E 002°32'0 0.0
2017-Jun-21 13:30N 53°05' E 002°32'0 0.0
2017-Jun-21 13:00N 53°05' E 002°32'0 0.0
2017-Jun-21 12:30N 53°05' E 002°32'0 0.0
2017-Jun-21 12:00N 53°05' E 002°32'0 0.0
2017-Jun-21 11:30N 53°05' E 002°32'0 0.0
2017-Jun-21 11:00N 53°05' E 002°32'0 0.0
2017-Jun-21 10:30N 53°05' E 002°32'0 0.0
2017-Jun-21 10:00N 53°05' E 002°32'0 0.0
2017-Jun-21 09:28N 53°05' E 002°32'0 0.0
2017-Jun-21 08:59N 53°05' E 002°32'0 0.0
2017-Jun-21 08:00N 53°05' E 002°32'0 0.0
2017-Jun-21 07:08N 53°05' E 002°32'0 0.1
2017-Jun-21 07:00N 53°05' E 002°32'0 0.0
2017-Jun-21 06:30N 53°05' E 002°32'2 4.8
2017-Jun-21 05:59N 53°06' E 002°35'1 1.7
2017-Jun-21 05:30N 53°07' E 002°36'1 1.5
2017-Jun-21 04:59N 53°07' E 002°36'1 1.4
2017-Jun-21 04:30N 53°08' E 002°36'1 1.3
2017-Jun-21 04:00N 53°09' E 002°36'1 1.1
2017-Jun-21 03:30N 53°09' E 002°35'1 1.2
2017-Jun-21 03:00N 53°09' E 002°35'1 2.2
2017-Jun-21 02:29N 53°10' E 002°33'1 2.1
2017-Jun-21 02:00N 53°10' E 002°31'1 2.0
2017-Jun-21 01:30N 53°10' E 002°29'1 1.4
2017-Jun-21 01:00N 53°10' E 002°28'1 1.3
2017-Jun-21 00:30N 53°09' E 002°28'1 1.4
2017-Jun-21 00:00N 53°08' E 002°29'0 0.4
2017-Jun-20 23:30N 53°08' E 002°29'0 0.7
2017-Jun-20 23:00N 53°08' E 002°30'1 1.9
2017-Jun-20 22:20N 53°07' E 002°30'1 1.8
2017-Jun-20 22:00N 53°06' E 002°30'1 1.6
2017-Jun-20 21:30N 53°06' E 002°30'1 1.2
2017-Jun-20 21:00N 53°05' E 002°30'1 1.4
2017-Jun-20 20:21N 53°05' E 002°31'1 1.5
2017-Jun-20 19:52N 53°05' E 002°32'0 1.4
2017-Jun-20 19:30N 53°05' E 002°33'1 1.4
2017-Jun-20 19:00N 53°05' E 002°33'0 0.4
2017-Jun-20 18:30N 53°05' E 002°33'1 2.5
2017-Jun-20 18:00N 53°04' E 002°32'2 2.7
2017-Jun-20 17:22N 53°02' E 002°32'1 3.9
2017-Jun-20 17:00N 53°00' E 002°32'9 4.1
2017-Jun-20 14:52N 52°52' E 002°33'28 6.2
2017-Jun-20 10:24N 52°24' E 002°38'10 6.7
2017-Jun-20 08:54N 52°16' E 002°47'6 6.0
2017-Jun-20 07:53N 52°11' E 002°52'17 5.2
2017-Jun-20 04:34N 51°55' E 003°04'0 5.1
2017-Jun-20 04:30N 51°55' E 003°04'3 4.9
2017-Jun-20 03:58N 51°53' E 003°06'2 5.2
2017-Jun-20 03:30N 51°51' E 003°09'3 5.4
2017-Jun-20 03:00N 51°48' E 003°11'3 5.5
2017-Jun-20 02:29N 51°46' E 003°13'3 5.5
2017-Jun-20 02:00N 51°44' E 003°16'3 6.7
2017-Jun-20 01:30N 51°41' E 003°18'3 6.1
2017-Jun-20 00:59N 51°38' E 003°21'3 6.2
2017-Jun-20 00:26N 51°35' E 003°24'3 6.5
2017-Jun-20 00:00N 51°33' E 003°25'4 7.1
2017-Jun-19 23:29N 51°30' E 003°29'3 6.7
2017-Jun-19 23:00N 51°27' E 003°32'3 6.4
2017-Jun-19 22:30N 51°26' E 003°37'3 5.2
2017-Jun-19 21:59N 51°27' E 003°41'1 2.9
2017-Jun-19 21:30N 51°29' E 003°42'0 0.0
2017-Jun-19 21:00N 51°29' E 003°42'0 0.3
2017-Jun-19 20:30N 51°28' E 003°42'0 0.0
2017-Jun-19 20:00N 51°28' E 003°42'0 0.0
2017-Jun-19 19:30N 51°28' E 003°42'0 0.0
2017-Jun-19 19:00N 51°28' E 003°42'0 0.0
2017-Jun-19 18:30N 51°28' E 003°42'0 0.0
2017-Jun-19 18:00N 51°28' E 003°42'0 0.0
2017-Jun-19 17:28N 51°28' E 003°42'0 0.0
2017-Jun-19 17:00N 51°28' E 003°42'0 0.0
2017-Jun-19 16:30N 51°28' E 003°42'0 0.0
2017-Jun-19 16:00N 51°28' E 003°42'0 0.0
2017-Jun-19 15:30N 51°28' E 003°42'0 0.0
2017-Jun-19 15:00N 51°28' E 003°42'0 0.0
2017-Jun-19 14:00N 51°28' E 003°42'0 0.0
2017-Jun-19 13:30N 51°28' E 003°42'0 0.0
2017-Jun-19 13:00N 51°28' E 003°42'0 0.0
2017-Jun-19 12:30N 51°28' E 003°42'0 0.0
2017-Jun-19 11:56N 51°28' E 003°42'0 0.0
2017-Jun-19 11:29N 51°28' E 003°42'0 0.0
2017-Jun-19 11:00N 51°28' E 003°42'0 0.0
2017-Jun-19 10:30N 51°28' E 003°42'0 0.0
2017-Jun-19 10:00N 51°28' E 003°42'0 0.0
2017-Jun-19 09:30N 51°28' E 003°42'0 0.0
2017-Jun-19 08:59N 51°28' E 003°42'0 0.0
2017-Jun-19 08:30N 51°28' E 003°42'0 0.0
2017-Jun-19 08:00N 51°28' E 003°42'0 0.3
2017-Jun-19 07:30N 51°29' E 003°42'0 0.0
2017-Jun-19 07:00N 51°29' E 003°42'0 0.0
2017-Jun-19 06:30N 51°29' E 003°42'0 0.0
2017-Jun-19 06:00N 51°29' E 003°42'0 0.0
2017-Jun-19 05:30N 51°29' E 003°42'0 0.0
2017-Jun-19 05:00N 51°29' E 003°42'0 0.0
2017-Jun-19 04:30N 51°29' E 003°42'0 0.0
2017-Jun-19 04:00N 51°29' E 003°42'0 0.0
2017-Jun-19 03:30N 51°29' E 003°42'0 0.0
2017-Jun-19 03:00N 51°29' E 003°42'0 0.0
2017-Jun-19 02:30N 51°29' E 003°42'0 0.0
2017-Jun-19 02:00N 51°29' E 003°42'0 0.0
2017-Jun-19 01:30N 51°29' E 003°42'0 0.0
2017-Jun-19 01:00N 51°29' E 003°42'0 0.0
2017-Jun-19 00:30N 51°29' E 003°42'0 0.0
2017-Jun-19 00:00N 51°29' E 003°42'0 0.0
2017-Jun-18 23:30N 51°29' E 003°42'0 0.0
2017-Jun-18 23:00N 51°29' E 003°42'0 0.0
2017-Jun-18 22:30N 51°29' E 003°42'0 0.0
2017-Jun-18 22:00N 51°29' E 003°42'0 0.0
2017-Jun-18 21:30N 51°29' E 003°42'0 0.0
2017-Jun-18 21:00N 51°29' E 003°42'0 0.0
2017-Jun-18 20:30N 51°29' E 003°42'0 0.0
2017-Jun-18 20:00N 51°29' E 003°42'0 0.0
2017-Jun-18 19:30N 51°29' E 003°42'0 0.0
2017-Jun-18 19:00N 51°29' E 003°42'0 0.0
2017-Jun-18 18:30N 51°29' E 003°42'0 0.0
2017-Jun-18 18:00N 51°29' E 003°42'0 0.0
2017-Jun-18 17:30N 51°29' E 003°42'0 0.0
2017-Jun-18 17:00N 51°29' E 003°42'0 0.0
2017-Jun-18 16:30N 51°29' E 003°42'0 0.0
2017-Jun-18 16:00N 51°29' E 003°42'0 0.0
2017-Jun-18 15:30N 51°29' E 003°42'0 0.0
2017-Jun-18 14:59N 51°29' E 003°42'0 0.0
2017-Jun-18 14:00N 51°29' E 003°42'0 0.0
2017-Jun-18 13:30N 51°29' E 003°42'0 0.0
2017-Jun-18 13:00N 51°29' E 003°42'0 0.0
2017-Jun-18 12:29N 51°29' E 003°42'0 0.3
2017-Jun-18 12:00N 51°28' E 003°42'0 1.0
2017-Jun-18 11:30N 51°28' E 003°42'1 2.6
2017-Jun-18 11:00N 51°27' E 003°42'2 3.1
2017-Jun-18 10:30N 51°28' E 003°42'0 0.8
2017-Jun-18 10:00N 51°29' E 003°42'0 0.0
2017-Jun-18 09:30N 51°29' E 003°42'0 0.0
2017-Jun-18 09:00N 51°29' E 003°42'0 0.0
2017-Jun-18 08:30N 51°29' E 003°42'0 0.0
2017-Jun-18 08:00N 51°29' E 003°42'1 1.7
2017-Jun-18 07:30N 51°28' E 003°42'1 2.3
2017-Jun-18 07:00N 51°27' E 003°42'0 0.0
2017-Jun-18 06:29N 51°27' E 003°42'0 0.0
2017-Jun-18 06:00N 51°27' E 003°42'0 0.0
2017-Jun-18 05:30N 51°27' E 003°42'0 0.0
2017-Jun-18 04:59N 51°27' E 003°42'0 0.0
2017-Jun-18 04:30N 51°27' E 003°42'0 0.0
2017-Jun-18 04:00N 51°27' E 003°42'0 0.0
2017-Jun-18 03:30N 51°27' E 003°42'0 0.0
2017-Jun-18 03:00N 51°27' E 003°42'0 0.0
2017-Jun-18 02:30N 51°27' E 003°42'0 0.0
2017-Jun-18 02:00N 51°27' E 003°42'0 0.0
2017-Jun-18 01:30N 51°27' E 003°42'0 0.0
2017-Jun-18 01:00N 51°27' E 003°42'0 0.0
2017-Jun-18 00:30N 51°27' E 003°42'0 0.0
2017-Jun-18 00:00N 51°27' E 003°42'0 0.0
2017-Jun-17 23:30N 51°27' E 003°42'0 0.4
2017-Jun-17 23:00N 51°27' E 003°42'0 0.0
2017-Jun-17 22:30N 51°27' E 003°42'0 0.1
2017-Jun-17 22:00N 51°27' E 003°42'0 0.0
2017-Jun-17 21:30N 51°27' E 003°42'0 0.0
2017-Jun-17 21:00N 51°27' E 003°42'0 0.0
2017-Jun-17 20:30N 51°27' E 003°42'0 0.2
2017-Jun-17 19:59N 51°27' E 003°42'0 0.1
2017-Jun-17 19:30N 51°27' E 003°42'0 0.0
2017-Jun-17 19:00N 51°27' E 003°42'0 0.0
2017-Jun-17 18:30N 51°27' E 003°42'0 0.0
2017-Jun-17 18:00N 51°27' E 003°42'0 0.0
2017-Jun-17 17:30N 51°27' E 003°42'0 0.0
2017-Jun-17 17:00N 51°27' E 003°42'0 0.0
2017-Jun-17 16:30N 51°27' E 003°42'0 0.0
2017-Jun-17 16:00N 51°27' E 003°42'0 0.0
2017-Jun-17 15:30N 51°27' E 003°42'0 0.0
2017-Jun-17 15:00N 51°27' E 003°42'0 0.0
2017-Jun-17 14:30N 51°27' E 003°42'0 0.0
2017-Jun-17 13:29N 51°27' E 003°42'0 0.2
2017-Jun-17 13:00N 51°27' E 003°42'1 2.3
2017-Jun-17 12:30N 51°27' E 003°41'2 4.3
2017-Jun-17 12:00N 51°26' E 003°38'2 3.8
2017-Jun-17 11:29N 51°26' E 003°35'3 4.9
2017-Jun-17 10:58N 51°27' E 003°31'2 5.0
2017-Jun-17 10:29N 51°29' E 003°29'3 5.2
2017-Jun-17 09:59N 51°31' E 003°26'2 4.5
2017-Jun-17 09:30N 51°33' E 003°25'2 4.9
2017-Jun-17 09:00N 51°35' E 003°23'3 5.4
2017-Jun-17 08:25N 51°37' E 003°20'1 1.7
2017-Jun-17 07:48N 51°38' E 003°19'1 4.6
2017-Jun-17 07:29N 51°40' E 003°18'8 5.6
2017-Jun-17 06:03N 51°46' E 003°11'0 6.0
2017-Jun-17 06:00N 51°47' E 003°11'40 6.3
2017-Jun-16 23:41N 52°08' E 002°16'1 6.6
2017-Jun-16 23:30N 52°09' E 002°15'3 6.4
2017-Jun-16 23:00N 52°11' E 002°11'13 1.6
2017-Jun-16 14:44N 52°15' E 001°50'1 2.3
2017-Jun-16 14:30N 52°15' E 001°51'56 1.7
2017-Jun-15 04:51N 53°05' E 002°33'0 0.0
2017-Jun-15 04:29N 53°05' E 002°33'0 0.0
2017-Jun-15 04:00N 53°05' E 002°33'0 0.1
2017-Jun-15 03:28N 53°05' E 002°33'0 0.0
2017-Jun-15 02:59N 53°05' E 002°33'0 0.0
2017-Jun-15 02:29N 53°05' E 002°33'0 0.0
2017-Jun-15 01:59N 53°05' E 002°33'0 0.0
2017-Jun-15 01:30N 53°05' E 002°33'0 0.0
2017-Jun-15 01:00N 53°05' E 002°33'0 0.0
2017-Jun-15 00:30N 53°05' E 002°33'0 0.0
2017-Jun-14 23:59N 53°05' E 002°33'0 0.0
2017-Jun-14 23:13N 53°05' E 002°33'0 0.0
2017-Jun-14 22:42N 53°05' E 002°33'0 0.0
2017-Jun-14 22:28N 53°05' E 002°33'0 0.0
2017-Jun-14 21:59N 53°05' E 002°33'0 0.1
2017-Jun-14 21:29N 53°05' E 002°33'0 0.0
2017-Jun-14 21:00N 53°05' E 002°33'0 0.0
2017-Jun-14 20:30N 53°05' E 002°33'0 0.0
2017-Jun-14 20:00N 53°05' E 002°33'0 0.0
2017-Jun-14 19:30N 53°05' E 002°33'0 0.0
2017-Jun-14 18:59N 53°05' E 002°33'0 0.0
2017-Jun-14 18:30N 53°05' E 002°33'0 0.0
2017-Jun-14 16:43N 53°05' E 002°33'0 1.1
2017-Jun-14 16:17N 53°05' E 002°32'0 1.1
2017-Jun-14 15:59N 53°05' E 002°32'0 0.0
2017-Jun-14 15:21N 53°05' E 002°32'0 0.0
2017-Jun-14 13:12N 53°05' E 002°32'0 0.0
2017-Jun-14 13:00N 53°05' E 002°32'0 0.1
2017-Jun-14 12:30N 53°05' E 002°32'0 0.7
2017-Jun-14 11:57N 53°04' E 002°32'0 0.7
2017-Jun-14 11:29N 53°05' E 002°32'0 0.0
2017-Jun-14 11:00N 53°05' E 002°32'0 0.0
2017-Jun-14 10:30N 53°05' E 002°32'0 0.0
2017-Jun-14 10:00N 53°05' E 002°32'0 0.0
2017-Jun-14 09:30N 53°05' E 002°32'0 0.0
2017-Jun-14 09:00N 53°05' E 002°32'0 0.0
2017-Jun-14 08:30N 53°05' E 002°32'1 0.4
2017-Jun-14 06:44N 53°05' E 002°33'0 0.0
2017-Jun-14 06:27N 53°05' E 002°33'0 0.0
2017-Jun-14 06:00N 53°05' E 002°33'0 0.0
2017-Jun-14 05:30N 53°05' E 002°33'0 0.0
2017-Jun-14 05:00N 53°05' E 002°33'0 0.0
2017-Jun-14 04:30N 53°05' E 002°33'0 0.0
2017-Jun-14 04:00N 53°05' E 002°33'0 0.0
2017-Jun-14 03:30N 53°05' E 002°33'0 0.1
2017-Jun-14 02:58N 53°05' E 002°33'53 2.3
2017-Jun-13 03:42N 52°36' E 003°45'1 4.1
2017-Jun-13 03:30N 52°35' E 003°46'3 4.1
2017-Jun-13 02:49N 52°34' E 003°50'1 4.2
2017-Jun-13 02:30N 52°33' E 003°52'2 4.2
2017-Jun-13 02:00N 52°32' E 003°54'2 4.0
2017-Jun-13 01:30N 52°32' E 003°58'2 4.1
2017-Jun-13 01:00N 52°31' E 004°01'2 4.3
2017-Jun-13 00:30N 52°31' E 004°05'2 4.6
2017-Jun-13 00:00N 52°31' E 004°08'2 4.7
2017-Jun-12 23:30N 52°31' E 004°12'2 4.4
2017-Jun-12 23:00N 52°30' E 004°16'2 4.3
2017-Jun-12 22:30N 52°30' E 004°19'2 4.2
2017-Jun-12 22:00N 52°30' E 004°23'2 4.0
2017-Jun-12 21:30N 52°29' E 004°26'2 3.9
2017-Jun-12 21:00N 52°29' E 004°29'2 3.4
2017-Jun-12 20:30N 52°28' E 004°31'2 3.6
2017-Jun-12 20:00N 52°28' E 004°34'0 0.1
2017-Jun-12 19:31N 52°28' E 004°34'0 0.0
2017-Jun-12 19:01N 52°28' E 004°34'0 0.0
2017-Jun-12 18:31N 52°28' E 004°34'0 0.0
2017-Jun-12 18:00N 52°28' E 004°34'0 0.0
2017-Jun-12 17:30N 52°28' E 004°34'0 0.0
2017-Jun-12 17:00N 52°28' E 004°34'0 0.0
2017-Jun-12 16:31N 52°28' E 004°34'0 0.0
2017-Jun-12 16:00N 52°28' E 004°34'0 0.0
2017-Jun-12 15:31N 52°28' E 004°34'0 0.0
2017-Jun-12 15:01N 52°28' E 004°34'0 0.0
2017-Jun-12 14:30N 52°28' E 004°34'0 0.0
2017-Jun-12 13:31N 52°28' E 004°34'0 0.0
2017-Jun-12 13:00N 52°28' E 004°34'0 0.0
2017-Jun-12 12:31N 52°28' E 004°34'0 0.0
2017-Jun-12 12:01N 52°28' E 004°34'0 0.0
2017-Jun-12 11:30N 52°28' E 004°34'0 0.0
2017-Jun-12 11:01N 52°28' E 004°34'0 0.0
2017-Jun-12 10:30N 52°28' E 004°34'  
Track history (hours):
 
Tides and Currents Weather Stations Pressure Air Temp Water Temp Dewpoint Dewpoint Depression Visibility Wind Speed Wind Dir Waves Ship Positions

Maimiti

Last reported at 2017-Jun-22 10:14 UTC. Time now 2017-Jun-23 22:26 UTC.
Position N 53°05' E 002°32'.

Length 35 m; draft 6.9 m.

Type: Tug. MMSI: 244850959.

Date/timePositionNaut miles runAvg speedWind from/ knotsBaromVisibWave heightAir tempDewpointWater temp
2017-Jun-22 10:14N 53°05' E 002°32'0 0.0
2017-Jun-22 06:44N 53°05' E 002°32'0 0.0
2017-Jun-22 06:29N 53°05' E 002°32'0 0.0
2017-Jun-22 05:59N 53°05' E 002°32'0 0.0
2017-Jun-22 05:08N 53°05' E 002°32'0 0.0
2017-Jun-22 04:52N 53°05' E 002°32'0 0.0
2017-Jun-22 01:04N 53°05' E 002°32'0 0.2
2017-Jun-22 01:00N 53°05' E 002°32'0 0.0
2017-Jun-22 00:29N 53°05' E 002°32'0 0.0
2017-Jun-21 23:02N 53°05' E 002°32'0 0.2
2017-Jun-21 23:00N 53°05' E 002°32'0 0.0
2017-Jun-21 22:06N 53°05' E 002°32'0 0.0
2017-Jun-21 21:45N 53°05' E 002°32'0 0.0
2017-Jun-21 19:24N 53°05' E 002°32'0 0.0
2017-Jun-21 19:00N 53°05' E 002°32'0 0.0
2017-Jun-21 18:22N 53°05' E 002°32'0 0.0
2017-Jun-21 18:00N 53°05' E 002°32'0 0.0
2017-Jun-21 17:29N 53°05' E 002°32'0 0.0
2017-Jun-21 17:00N 53°05' E 002°32'0 0.0
2017-Jun-21 16:19N 53°05' E 002°32'0 0.0
2017-Jun-21 16:00N 53°05' E 002°32'0 0.1
2017-Jun-21 15:21N 53°05' E 002°32'0 0.0
2017-Jun-21 14:57N 53°05' E 002°32'0 0.0
2017-Jun-21 14:30N 53°05' E 002°32'0 0.0
2017-Jun-21 13:30N 53°05' E 002°32'0 0.0
2017-Jun-21 13:00N 53°05' E 002°32'0 0.0
2017-Jun-21 12:30N 53°05' E 002°32'0 0.0
2017-Jun-21 12:00N 53°05' E 002°32'0 0.0
2017-Jun-21 11:30N 53°05' E 002°32'0 0.0
2017-Jun-21 11:00N 53°05' E 002°32'0 0.0
2017-Jun-21 10:30N 53°05' E 002°32'0 0.0
2017-Jun-21 10:00N 53°05' E 002°32'0 0.0
2017-Jun-21 09:28N 53°05' E 002°32'0 0.0
2017-Jun-21 08:59N 53°05' E 002°32'0 0.0
2017-Jun-21 08:00N 53°05' E 002°32'0 0.0
2017-Jun-21 07:08N 53°05' E 002°32'0 0.1
2017-Jun-21 07:00N 53°05' E 002°32'0 0.0
2017-Jun-21 06:30N 53°05' E 002°32'2 4.8
2017-Jun-21 05:59N 53°06' E 002°35'1 1.7
2017-Jun-21 05:30N 53°07' E 002°36'1 1.5
2017-Jun-21 04:59N 53°07' E 002°36'1 1.4
2017-Jun-21 04:30N 53°08' E 002°36'1 1.3
2017-Jun-21 04:00N 53°09' E 002°36'1 1.1
2017-Jun-21 03:30N 53°09' E 002°35'1 1.2
2017-Jun-21 03:00N 53°09' E 002°35'1 2.2
2017-Jun-21 02:29N 53°10' E 002°33'1 2.1
2017-Jun-21 02:00N 53°10' E 002°31'1 2.0
2017-Jun-21 01:30N 53°10' E 002°29'1 1.4
2017-Jun-21 01:00N 53°10' E 002°28'1 1.3
2017-Jun-21 00:30N 53°09' E 002°28'1 1.4
2017-Jun-21 00:00N 53°08' E 002°29'0 0.4
2017-Jun-20 23:30N 53°08' E 002°29'0 0.7
2017-Jun-20 23:00N 53°08' E 002°30'1 1.9
2017-Jun-20 22:20N 53°07' E 002°30'1 1.8
2017-Jun-20 22:00N 53°06' E 002°30'1 1.6
2017-Jun-20 21:30N 53°06' E 002°30'1 1.2
2017-Jun-20 21:00N 53°05' E 002°30'1 1.4
2017-Jun-20 20:21N 53°05' E 002°31'1 1.5
2017-Jun-20 19:52N 53°05' E 002°32'0 1.4
2017-Jun-20 19:30N 53°05' E 002°33'1 1.4
2017-Jun-20 19:00N 53°05' E 002°33'0 0.4
2017-Jun-20 18:30N 53°05' E 002°33'1 2.5
2017-Jun-20 18:00N 53°04' E 002°32'2 2.7
2017-Jun-20 17:22N 53°02' E 002°32'1 3.9
2017-Jun-20 17:00N 53°00' E 002°32'9 4.1
2017-Jun-20 14:52N 52°52' E 002°33'28 6.2
2017-Jun-20 10:24N 52°24' E 002°38'10 6.7
2017-Jun-20 08:54N 52°16' E 002°47'6 6.0
2017-Jun-20 07:53N 52°11' E 002°52'17 5.2
2017-Jun-20 04:34N 51°55' E 003°04'0 5.1
2017-Jun-20 04:30N 51°55' E 003°04'3 4.9
2017-Jun-20 03:58N 51°53' E 003°06'2 5.2
2017-Jun-20 03:30N 51°51' E 003°09'3 5.4
2017-Jun-20 03:00N 51°48' E 003°11'3 5.5
2017-Jun-20 02:29N 51°46' E 003°13'3 5.5
2017-Jun-20 02:00N 51°44' E 003°16'3 6.7
2017-Jun-20 01:30N 51°41' E 003°18'3 6.1
2017-Jun-20 00:59N 51°38' E 003°21'3 6.2
2017-Jun-20 00:26N 51°35' E 003°24'3 6.5
2017-Jun-20 00:00N 51°33' E 003°25'4 7.1
2017-Jun-19 23:29N 51°30' E 003°29'3 6.7
2017-Jun-19 23:00N 51°27' E 003°32'3 6.4
2017-Jun-19 22:30N 51°26' E 003°37'3 5.2
2017-Jun-19 21:59N 51°27' E 003°41'1 2.9
2017-Jun-19 21:30N 51°29' E 003°42'0 0.0
2017-Jun-19 21:00N 51°29' E 003°42'0 0.3
2017-Jun-19 20:30N 51°28' E 003°42'0 0.0
2017-Jun-19 20:00N 51°28' E 003°42'0 0.0
2017-Jun-19 19:30N 51°28' E 003°42'0 0.0
2017-Jun-19 19:00N 51°28' E 003°42'0 0.0
2017-Jun-19 18:30N 51°28' E 003°42'0 0.0
2017-Jun-19 18:00N 51°28' E 003°42'0 0.0
2017-Jun-19 17:28N 51°28' E 003°42'0 0.0
2017-Jun-19 17:00N 51°28' E 003°42'0 0.0
2017-Jun-19 16:30N 51°28' E 003°42'0 0.0
2017-Jun-19 16:00N 51°28' E 003°42'0 0.0
2017-Jun-19 15:30N 51°28' E 003°42'0 0.0
2017-Jun-19 15:00N 51°28' E 003°42'0 0.0
2017-Jun-19 14:00N 51°28' E 003°42'0 0.0
2017-Jun-19 13:30N 51°28' E 003°42'0 0.0
2017-Jun-19 13:00N 51°28' E 003°42'0 0.0
2017-Jun-19 12:30N 51°28' E 003°42'0 0.0
2017-Jun-19 11:56N 51°28' E 003°42'0 0.0
2017-Jun-19 11:29N 51°28' E 003°42'0 0.0
2017-Jun-19 11:00N 51°28' E 003°42'0 0.0
2017-Jun-19 10:30N 51°28' E 003°42'0 0.0
2017-Jun-19 10:00N 51°28' E 003°42'0 0.0
2017-Jun-19 09:30N 51°28' E 003°42'0 0.0
2017-Jun-19 08:59N 51°28' E 003°42'0 0.0
2017-Jun-19 08:30N 51°28' E 003°42'0 0.0
2017-Jun-19 08:00N 51°28' E 003°42'0 0.3
2017-Jun-19 07:30N 51°29' E 003°42'0 0.0
2017-Jun-19 07:00N 51°29' E 003°42'0 0.0
2017-Jun-19 06:30N 51°29' E 003°42'0 0.0
2017-Jun-19 06:00N 51°29' E 003°42'0 0.0
2017-Jun-19 05:30N 51°29' E 003°42'0 0.0
2017-Jun-19 05:00N 51°29' E 003°42'0 0.0
2017-Jun-19 04:30N 51°29' E 003°42'0 0.0
2017-Jun-19 04:00N 51°29' E 003°42'0 0.0
2017-Jun-19 03:30N 51°29' E 003°42'0 0.0
2017-Jun-19 03:00N 51°29' E 003°42'0 0.0
2017-Jun-19 02:30N 51°29' E 003°42'0 0.0
2017-Jun-19 02:00N 51°29' E 003°42'0 0.0
2017-Jun-19 01:30N 51°29' E 003°42'0 0.0
2017-Jun-19 01:00N 51°29' E 003°42'0 0.0
2017-Jun-19 00:30N 51°29' E 003°42'0 0.0
2017-Jun-19 00:00N 51°29' E 003°42'0 0.0
2017-Jun-18 23:30N 51°29' E 003°42'0 0.0
2017-Jun-18 23:00N 51°29' E 003°42'0 0.0
2017-Jun-18 22:30N 51°29' E 003°42'0 0.0
2017-Jun-18 22:00N 51°29' E 003°42'0 0.0
2017-Jun-18 21:30N 51°29' E 003°42'0 0.0
2017-Jun-18 21:00N 51°29' E 003°42'0 0.0
2017-Jun-18 20:30N 51°29' E 003°42'0 0.0
2017-Jun-18 20:00N 51°29' E 003°42'0 0.0
2017-Jun-18 19:30N 51°29' E 003°42'0 0.0
2017-Jun-18 19:00N 51°29' E 003°42'0 0.0
2017-Jun-18 18:30N 51°29' E 003°42'0 0.0
2017-Jun-18 18:00N 51°29' E 003°42'0 0.0
2017-Jun-18 17:30N 51°29' E 003°42'0 0.0
2017-Jun-18 17:00N 51°29' E 003°42'0 0.0
2017-Jun-18 16:30N 51°29' E 003°42'0 0.0
2017-Jun-18 16:00N 51°29' E 003°42'0 0.0
2017-Jun-18 15:30N 51°29' E 003°42'0 0.0
2017-Jun-18 14:59N 51°29' E 003°42'0 0.0
2017-Jun-18 14:00N 51°29' E 003°42'0 0.0
2017-Jun-18 13:30N 51°29' E 003°42'0 0.0
2017-Jun-18 13:00N 51°29' E 003°42'0 0.0
2017-Jun-18 12:29N 51°29' E 003°42'0 0.3
2017-Jun-18 12:00N 51°28' E 003°42'0 1.0
2017-Jun-18 11:30N 51°28' E 003°42'1 2.6
2017-Jun-18 11:00N 51°27' E 003°42'2 3.1
2017-Jun-18 10:30N 51°28' E 003°42'0 0.8
2017-Jun-18 10:00N 51°29' E 003°42'0 0.0
2017-Jun-18 09:30N 51°29' E 003°42'0 0.0
2017-Jun-18 09:00N 51°29' E 003°42'0 0.0
2017-Jun-18 08:30N 51°29' E 003°42'0 0.0
2017-Jun-18 08:00N 51°29' E 003°42'1 1.7
2017-Jun-18 07:30N 51°28' E 003°42'1 2.3
2017-Jun-18 07:00N 51°27' E 003°42'0 0.0
2017-Jun-18 06:29N 51°27' E 003°42'0 0.0
2017-Jun-18 06:00N 51°27' E 003°42'0 0.0
2017-Jun-18 05:30N 51°27' E 003°42'0 0.0
2017-Jun-18 04:59N 51°27' E 003°42'0 0.0
2017-Jun-18 04:30N 51°27' E 003°42'0 0.0
2017-Jun-18 04:00N 51°27' E 003°42'0 0.0
2017-Jun-18 03:30N 51°27' E 003°42'0 0.0
2017-Jun-18 03:00N 51°27' E 003°42'0 0.0
2017-Jun-18 02:30N 51°27' E 003°42'0 0.0
2017-Jun-18 02:00N 51°27' E 003°42'0 0.0
2017-Jun-18 01:30N 51°27' E 003°42'0 0.0
2017-Jun-18 01:00N 51°27' E 003°42'0 0.0
2017-Jun-18 00:30N 51°27' E 003°42'0 0.0
2017-Jun-18 00:00N 51°27' E 003°42'0 0.0
2017-Jun-17 23:30N 51°27' E 003°42'0 0.4
2017-Jun-17 23:00N 51°27' E 003°42'0 0.0
2017-Jun-17 22:30N 51°27' E 003°42'0 0.1
2017-Jun-17 22:00N 51°27' E 003°42'0 0.0
2017-Jun-17 21:30N 51°27' E 003°42'0 0.0
2017-Jun-17 21:00N 51°27' E 003°42'0 0.0
2017-Jun-17 20:30N 51°27' E 003°42'0 0.2
2017-Jun-17 19:59N 51°27' E 003°42'0 0.1
2017-Jun-17 19:30N 51°27' E 003°42'0 0.0
2017-Jun-17 19:00N 51°27' E 003°42'0 0.0
2017-Jun-17 18:30N 51°27' E 003°42'0 0.0
2017-Jun-17 18:00N 51°27' E 003°42'0 0.0
2017-Jun-17 17:30N 51°27' E 003°42'0 0.0
2017-Jun-17 17:00N 51°27' E 003°42'0 0.0
2017-Jun-17 16:30N 51°27' E 003°42'0 0.0
2017-Jun-17 16:00N 51°27' E 003°42'0 0.0
2017-Jun-17 15:30N 51°27' E 003°42'0 0.0
2017-Jun-17 15:00N 51°27' E 003°42'0 0.0
2017-Jun-17 14:30N 51°27' E 003°42'0 0.0
2017-Jun-17 13:29N 51°27' E 003°42'0 0.2
2017-Jun-17 13:00N 51°27' E 003°42'1 2.3
2017-Jun-17 12:30N 51°27' E 003°41'2 4.3
2017-Jun-17 12:00N 51°26' E 003°38'2 3.8
2017-Jun-17 11:29N 51°26' E 003°35'3 4.9
2017-Jun-17 10:58N 51°27' E 003°31'2 5.0
2017-Jun-17 10:29N 51°29' E 003°29'3 5.2
2017-Jun-17 09:59N 51°31' E 003°26'2 4.5
2017-Jun-17 09:30N 51°33' E 003°25'2 4.9
2017-Jun-17 09:00N 51°35' E 003°23'3 5.4
2017-Jun-17 08:25N 51°37' E 003°20'1 1.7
2017-Jun-17 07:48N 51°38' E 003°19'1 4.6
2017-Jun-17 07:29N 51°40' E 003°18'8 5.6
2017-Jun-17 06:03N 51°46' E 003°11'0 6.0
2017-Jun-17 06:00N 51°47' E 003°11'40 6.3
2017-Jun-16 23:41N 52°08' E 002°16'1 6.6
2017-Jun-16 23:30N 52°09' E 002°15'3 6.4
2017-Jun-16 23:00N 52°11' E 002°11'13 1.6
2017-Jun-16 14:44N 52°15' E 001°50'1 2.3
2017-Jun-16 14:30N 52°15' E 001°51'56 1.7
2017-Jun-15 04:51N 53°05' E 002°33'0 0.0
2017-Jun-15 04:29N 53°05' E 002°33'0 0.0
2017-Jun-15 04:00N 53°05' E 002°33'0 0.1
2017-Jun-15 03:28N 53°05' E 002°33'0 0.0
2017-Jun-15 02:59N 53°05' E 002°33'0 0.0
2017-Jun-15 02:29N 53°05' E 002°33'0 0.0
2017-Jun-15 01:59N 53°05' E 002°33'0 0.0
2017-Jun-15 01:30N 53°05' E 002°33'0 0.0
2017-Jun-15 01:00N 53°05' E 002°33'0 0.0
2017-Jun-15 00:30N 53°05' E 002°33'0 0.0
2017-Jun-14 23:59N 53°05' E 002°33'0 0.0
2017-Jun-14 23:13N 53°05' E 002°33'0 0.0
2017-Jun-14 22:42N 53°05' E 002°33'0 0.0
2017-Jun-14 22:28N 53°05' E 002°33'0 0.0
2017-Jun-14 21:59N 53°05' E 002°33'0 0.1
2017-Jun-14 21:29N 53°05' E 002°33'0 0.0
2017-Jun-14 21:00N 53°05' E 002°33'0 0.0
2017-Jun-14 20:30N 53°05' E 002°33'0 0.0
2017-Jun-14 20:00N 53°05' E 002°33'0 0.0
2017-Jun-14 19:30N 53°05' E 002°33'0 0.0
2017-Jun-14 18:59N 53°05' E 002°33'0 0.0
2017-Jun-14 18:30N 53°05' E 002°33'0 0.0
2017-Jun-14 16:43N 53°05' E 002°33'0 1.1
2017-Jun-14 16:17N 53°05' E 002°32'0 1.1
2017-Jun-14 15:59N 53°05' E 002°32'0 0.0
2017-Jun-14 15:21N 53°05' E 002°32'0 0.0
2017-Jun-14 13:12N 53°05' E 002°32'0 0.0
2017-Jun-14 13:00N 53°05' E 002°32'0 0.1
2017-Jun-14 12:30N 53°05' E 002°32'0 0.7
2017-Jun-14 11:57N 53°04' E 002°32'0 0.7
2017-Jun-14 11:29N 53°05' E 002°32'0 0.0
2017-Jun-14 11:00N 53°05' E 002°32'0 0.0
2017-Jun-14 10:30N 53°05' E 002°32'0 0.0
2017-Jun-14 10:00N 53°05' E 002°32'0 0.0
2017-Jun-14 09:30N 53°05' E 002°32'0 0.0
2017-Jun-14 09:00N 53°05' E 002°32'0 0.0
2017-Jun-14 08:30N 53°05' E 002°32'1 0.4
2017-Jun-14 06:44N 53°05' E 002°33'0 0.0
2017-Jun-14 06:27N 53°05' E 002°33'0 0.0
2017-Jun-14 06:00N 53°05' E 002°33'0 0.0
2017-Jun-14 05:30N 53°05' E 002°33'0 0.0
2017-Jun-14 05:00N 53°05' E 002°33'0 0.0
2017-Jun-14 04:30N 53°05' E 002°33'0 0.0
2017-Jun-14 04:00N 53°05' E 002°33'0 0.0
2017-Jun-14 03:30N 53°05' E 002°33'0 0.1
2017-Jun-14 02:58N 53°05' E 002°33'53 2.3
2017-Jun-13 03:42N 52°36' E 003°45'1 4.1
2017-Jun-13 03:30N 52°35' E 003°46'3 4.1
2017-Jun-13 02:49N 52°34' E 003°50'1 4.2
2017-Jun-13 02:30N 52°33' E 003°52'2 4.2
2017-Jun-13 02:00N 52°32' E 003°54'2 4.0
2017-Jun-13 01:30N 52°32' E 003°58'2 4.1
2017-Jun-13 01:00N 52°31' E 004°01'2 4.3
2017-Jun-13 00:30N 52°31' E 004°05'2 4.6
2017-Jun-13 00:00N 52°31' E 004°08'2 4.7
2017-Jun-12 23:30N 52°31' E 004°12'2 4.4
2017-Jun-12 23:00N 52°30' E 004°16'2 4.3
2017-Jun-12 22:30N 52°30' E 004°19'2 4.2
2017-Jun-12 22:00N 52°30' E 004°23'2 4.0
2017-Jun-12 21:30N 52°29' E 004°26'2 3.9
2017-Jun-12 21:00N 52°29' E 004°29'2 3.4
2017-Jun-12 20:30N 52°28' E 004°31'2 3.6
2017-Jun-12 20:00N 52°28' E 004°34'0 0.1
2017-Jun-12 19:31N 52°28' E 004°34'0 0.0
2017-Jun-12 19:01N 52°28' E 004°34'0 0.0
2017-Jun-12 18:31N 52°28' E 004°34'0 0.0
2017-Jun-12 18:00N 52°28' E 004°34'0 0.0
2017-Jun-12 17:30N 52°28' E 004°34'0 0.0
2017-Jun-12 17:00N 52°28' E 004°34'0 0.0
2017-Jun-12 16:31N 52°28' E 004°34'0 0.0
2017-Jun-12 16:00N 52°28' E 004°34'0 0.0
2017-Jun-12 15:31N 52°28' E 004°34'0 0.0
2017-Jun-12 15:01N 52°28' E 004°34'0 0.0
2017-Jun-12 14:30N 52°28' E 004°34'0 0.0
2017-Jun-12 13:31N 52°28' E 004°34'0 0.0
2017-Jun-12 13:00N 52°28' E 004°34'0 0.0
2017-Jun-12 12:31N 52°28' E 004°34'0 0.0
2017-Jun-12 12:01N 52°28' E 004°34'0 0.0
2017-Jun-12 11:30N 52°28' E 004°34'0 0.0
2017-Jun-12 11:01N 52°28' E 004°34'0 0.0
2017-Jun-12 10:30N 52°28' E 004°34'  

Dump ship's entire track history